Flight Track Log - Related Links

Times and Time Zones

All times are in EDT time to prevent confusion due to time zone crossing. See the AAL2356 flight status page for this flight to view local times or setup timezone preferences in your user account.

Time Position Orientation Groundspeed Altitude Reporting Facility
EDT Latitude Longitude Course Direction KTS MPH feet Rate Location/Type
Tue 03:48:06 PM 32.9167 -97.0333 347° North 149 171 2,100  Level Dallas / Fort Worth TRACON
Tue 03:49:01 PM 32.9667 -97.0333 360° North 191 220 3,800 1,710 Climbing Dallas / Fort Worth TRACON
Tue 03:50:00 PM 32.8742 -96.8000 North  Level FlightAware Approximate
Tue 03:51:00 PM 32.9997 -96.8066 341° North  Level FlightAware Approximate
Tue 03:51:19 PM 33.1250 -97.0189 North 267 307 7,600  Level Fort Worth Center
Tue 03:52:00 PM 33.1209 -96.8488 347° North  Level FlightAware Approximate
Tue 03:52:19 PM 33.2022 -97.0039 North 296 341 9,600  Level Fort Worth Center
Tue 03:53:00 PM 33.2439 -96.8839 347° North  Level FlightAware Approximate
Tue 03:53:19 PM 33.3022 -96.9858 North 317 365 11,400  Level Fort Worth Center
Tue 03:54:19 PM 33.3942 -96.9731 North 354 407 12,600 1,850 Climbing Fort Worth Center
Tue 03:55:19 PM 33.5131 -96.9375 14° North 383 441 15,100 2,400 Climbing Fort Worth Center
Tue 03:56:19 PM 33.6108 -96.8972 19° North 407 468 17,400 2,350 Climbing Fort Worth Center
Tue 03:57:19 PM 33.7381 -96.8489 18° North 425 489 19,800 2,050 Climbing Fort Worth Center
Tue 03:58:19 PM 33.8422 -96.8083 18° North 431 496 21,500 1,800 Climbing Fort Worth Center
Tue 03:59:19 PM 33.9589 -96.7650 17° North 431 496 23,400 1,750 Climbing Fort Worth Center
Tue 04:00:19 PM 34.0797 -96.7164 18° North 441 507 25,000 1,550 Climbing Fort Worth Center
Tue 04:01:19 PM 34.1961 -96.6703 18° North 441 507 26,500 1,550 Climbing Fort Worth Center
Tue 04:02:19 PM 34.3189 -96.6189 19° North 447 514 28,100 1,500 Climbing Fort Worth Center
Tue 04:03:19 PM 34.4394 -96.5522 25° Northeast 458 527 29,500 1,200 Climbing Fort Worth Center
Tue 04:04:19 PM 34.5600 -96.4881 24° Northeast 464 534 30,500 1,000 Climbing Fort Worth Center
Tue 04:05:19 PM 34.6806 -96.4186 25° Northeast 471 542 31,500 850 Climbing Fort Worth Center
Tue 04:06:19 PM 34.8011 -96.3514 25° Northeast 471 542 32,200 700 Climbing Fort Worth Center
Tue 04:07:19 PM 34.9194 -96.2842 25° Northeast 465 535 32,900 400 Climbing Fort Worth Center
Tue 04:08:19 PM 35.0378 -96.2167 25° Northeast 465 535 33,000 50 Climbing Fort Worth Center
Tue 04:09:19 PM 35.1600 -96.1514 24° Northeast 465 535 33,000  Level Fort Worth Center
Tue 04:10:19 PM 35.2758 -96.0633 32° Northeast 470 541 33,000  Level Fort Worth Center
Tue 04:11:19 PM 35.3811 -95.9522 41° Northeast 480 552 33,000  Level Fort Worth Center
Tue 04:12:19 PM 35.4986 -95.8353 39° Northeast 491 565 33,000  Level Fort Worth Center
Tue 04:14:02 PM 35.6622 -95.6644 40° Northeast 497 572 33,000  Level Kansas City Center
Tue 04:15:03 PM 35.7714 -95.5553 39° Northeast 502 578 33,000  Level Kansas City Center
Tue 04:16:04 PM 35.9014 -95.4214 40° Northeast 507 583 33,000  Level Kansas City Center
Tue 04:17:07 PM 36.0094 -95.3089 40° Northeast 509 586 33,000  Level Kansas City Center
Tue 04:18:08 PM 36.1053 -95.2092 40° Northeast 509 586 33,000  Level Kansas City Center
Tue 04:19:09 PM 36.2253 -95.0853 40° Northeast 511 588 33,000  Level Kansas City Center
Tue 04:20:13 PM 36.3331 -94.9733 40° Northeast 511 588 33,000  Level Kansas City Center
Tue 04:21:14 PM 36.4622 -94.8369 40° Northeast 511 588 33,000  Level Kansas City Center
Tue 04:22:15 PM 36.5711 -94.7233 40° Northeast 512 589 33,000  Level Kansas City Center
Tue 04:23:19 PM 36.6794 -94.6086 40° Northeast 512 589 33,000  Level Kansas City Center
Tue 04:24:20 PM 36.7875 -94.4942 40° Northeast 511 588 33,000  Level Kansas City Center
Tue 04:25:24 PM 36.8958 -94.3786 40° Northeast 511 588 33,000  Level Kansas City Center
Tue 04:27:25 PM 37.1339 -94.1206 41° Northeast 515 593 33,000  Level Kansas City Center
Tue 04:28:29 PM 37.2314 -94.0164 40° Northeast 514 592 33,000  Level Kansas City Center
Tue 04:29:30 PM 37.3378 -93.8969 42° Northeast 512 589 33,000  Level Kansas City Center
Tue 04:30:31 PM 37.4444 -93.7769 42° Northeast 511 588 33,000  Level Kansas City Center
Tue 04:31:35 PM 37.5747 -93.6344 41° Northeast 513 590 33,000  Level Kansas City Center
Tue 04:32:36 PM 37.6817 -93.5142 42° Northeast 513 590 33,000  Level Kansas City Center
Tue 04:33:37 PM 37.7881 -93.3936 42° Northeast 510 587 33,000  Level Kansas City Center
Tue 04:34:40 PM 37.8961 -93.2733 41° Northeast 513 590 33,000  Level Kansas City Center
Tue 04:35:41 PM 38.0031 -93.1514 42° Northeast 513 590 33,000  Level Kansas City Center
Tue 04:36:44 PM 38.1106 -93.0286 42° Northeast 514 592 33,000  Level Kansas City Center
Tue 04:37:47 PM 38.2183 -92.9081 41° Northeast 511 588 33,000  Level Kansas City Center
Tue 04:38:48 PM 38.3247 -92.7858 42° Northeast 508 585 33,000  Level Kansas City Center
Tue 04:39:49 PM 38.4294 -92.6658 42° Northeast 504 580 33,000  Level Kansas City Center
Tue 04:40:53 PM 38.5564 -92.5189 42° Northeast 505 581 33,000  Level Kansas City Center
Tue 04:41:54 PM 38.6631 -92.3956 42° Northeast 510 587 33,000  Level Kansas City Center
Tue 04:42:55 PM 38.7658 -92.2725 43° Northeast 505 581 33,000  Level Kansas City Center
Tue 04:43:59 PM 38.8711 -92.1497 42° Northeast 506 582 33,000  Level Kansas City Center
Tue 04:45:00 PM 38.9764 -92.0269 42° Northeast 508 585 33,000  Level Kansas City Center
Tue 04:46:01 PM 39.0783 -91.9000 44° Northeast 508 585 33,000  Level Kansas City Center
Tue 04:47:05 PM 39.1789 -91.7692 45° Northeast 510 587 33,000  Level Kansas City Center
Tue 04:48:05 PM 39.2883 -91.6303 44° Northeast 513 590 33,000  Level Kansas City Center
Tue 04:49:08 PM 39.3956 -91.4903 45° Northeast 515 593 33,000  Level Kansas City Center
Tue 04:50:09 PM 39.4961 -91.3597 45° Northeast 513 590 33,000  Level Kansas City Center
Tue 04:51:13 PM 39.5964 -91.2283 45° Northeast 512 589 33,000  Level Kansas City Center
Tue 04:52:14 PM 39.6975 -91.0964 45° Northeast 513 590 33,000  Level Kansas City Center
Tue 04:53:15 PM 39.8256 -90.9650 38° Northeast 506 582 33,000  Level Kansas City Center
Tue 04:54:19 PM 39.9400 -90.8503 38° Northeast 508 585 33,000  Level Kansas City Center
Tue 04:56:23 PM 40.1642 -90.6197 38° Northeast 512 589 33,000  Level Kansas City Center
Tue 04:56:40 PM 40.2094 -90.5750 37° Northeast 511 588 33,000  Level Chicago Center
Tue 04:57:42 PM 40.3233 -90.4592 38° Northeast 515 593 33,000  Level Chicago Center
Tue 04:58:44 PM 40.4367 -90.3444 38° Northeast 514 592 33,000 -581 Level Chicago Center
Tue 04:59:46 PM 40.5481 -90.2278 39° Northeast 513 590 31,800 -1,536 Descending Chicago Center
Tue 05:00:49 PM 40.6608 -90.1122 38° Northeast 515 593 29,800 -1,872 Descending Chicago Center
Tue 05:01:51 PM 40.7753 -89.9944 38° Northeast 521 600 27,900 -1,887 Descending Chicago Center
Tue 05:02:53 PM 40.9117 -89.8494 39° Northeast 523 602 25,900 -1,790 Descending Chicago Center
Tue 05:03:55 PM 41.0128 -89.7375 40° Northeast 531 611 24,200 -919 Descending Chicago Center
Tue 05:04:57 PM 41.0883 -89.5714 59° Northeast 519 597 24,000 -1,258 Descending Chicago Center
Tue 05:05:59 PM 41.1844 -89.3772 57° Northeast 522 601 21,600 -2,565 Descending Chicago Center
Tue 05:07:01 PM 41.2600 -89.2222 57° Northeast 503 579 18,700 -2,710 Descending Chicago Center
Tue 05:08:03 PM 41.3367 -89.0644 57° Northeast 477 549 16,000 -3,194 Descending Chicago Center
Tue 05:09:05 PM 41.4047 -88.9275 56° Northeast 449 517 12,100 -2,419 Descending Chicago Center
Tue 05:10:07 PM 41.4678 -88.8008 56° Northeast 417 480 11,000 -532 Descending Chicago Center
Tue 05:11:09 PM 41.5206 -88.6856 59° Northeast 371 427 11,000  Level Chicago Center
Tue 05:12:12 PM 41.5639 -88.5742 62° Northeast 343 395 11,000  Level Chicago Center
Tue 05:13:14 PM 41.6106 -88.4642 60° Northeast 341 392 11,000 -774 Level Chicago Center
Tue 05:14:16 PM 41.6789 -88.3447 53° Northeast 338 389 9,400 -1,403 Descending Chicago Center
Tue 05:15:18 PM 41.7344 -88.2506 52° Northeast 325 374 8,100 -1,113 Descending Chicago Center
Tue 05:16:20 PM 41.7878 -88.1583 52° Northeast 316 364 7,100 -532 Descending Chicago Center
Tue 05:17:22 PM 41.8319 -88.0647 58° Northeast 310 357 7,000 -48 Descending Chicago Center
Tue 05:18:25 PM 41.8508 -87.9544 77° East 305 351 7,000  Level Chicago Center
Tue 05:19:09 PM 41.8667 -87.8667 76° East 307 353 7,000 -346 Level Chicago TRACON
Tue 05:20:09 PM 41.8833 -87.7500 79° East 297 342 6,400 -900 Descending Chicago TRACON
Tue 05:21:09 PM 41.8833 -87.6500 90° East 261 300 5,200 -737 Descending Chicago TRACON
Tue 05:22:03 PM 41.8833 -87.5667 90° East 240 276 5,000 -105 Descending Chicago TRACON
Tue 05:23:03 PM 41.8833 -87.4667 90° East 243 280 5,000  Level Chicago TRACON
Tue 05:24:09 PM 41.8833 -87.3833 90° East 208 239 5,000  Level Chicago TRACON
Tue 05:24:37 PM 41.9019 -87.3739 21° North 211 243 5,000  Level Chicago Center
Tue 05:25:10 PM 41.9333 -87.3833 347° North 192 221 5,000  Level Chicago TRACON
Tue 05:26:10 PM 41.9667 -87.4167 323° Northwest 167 192 5,000  Level Chicago TRACON
Tue 05:27:10 PM 41.9667 -87.4833 270° West 160 184 5,000  Level Chicago TRACON
Tue 05:28:10 PM 41.9667 -87.5500 270° West 165 190 5,000  Level Chicago TRACON
Tue 05:29:04 PM 41.9667 -87.6000 270° West 161 185 5,000  Level Chicago TRACON

Login

Don't have an account? Register now (free) for customized features, flight alerts, and more!